createdAt,value
2023-05-14T00:00:19.444Z,13.45
2023-05-14T00:02:47.057Z,11.95
2023-05-14T00:05:14.685Z,15.75
2023-05-14T00:07:42.256Z,13.13
2023-05-14T00:10:10.633Z,10.95
2023-05-14T00:12:38.266Z,12.32
2023-05-14T00:15:06.632Z,11.73
2023-05-14T00:17:34.307Z,14.63
2023-05-14T00:20:01.977Z,11.75
2023-05-14T00:22:29.552Z,12.75
2023-05-14T00:24:57.081Z,10.02
2023-05-14T00:27:24.635Z,13.50
2023-05-14T00:29:52.272Z,13.95
2023-05-14T00:32:19.893Z,11.50
2023-05-14T00:34:47.496Z,11.68
2023-05-14T00:37:15.108Z,12.45
2023-05-14T00:39:42.830Z,13.00
2023-05-14T00:42:10.516Z,10.80
2023-05-14T00:44:38.083Z,11.93
2023-05-14T00:47:06.565Z,12.15
2023-05-14T00:49:35.408Z,12.43
2023-05-14T00:52:03.585Z,11.60
2023-05-14T00:54:31.799Z,11.25
2023-05-14T00:57:00.028Z,11.30
2023-05-14T00:59:27.909Z,10.63
2023-05-14T01:01:55.656Z,11.98
2023-05-14T01:04:23.667Z,13.85
2023-05-14T01:07:25.279Z,10.93
2023-05-14T01:09:55.211Z,12.35
2023-05-14T01:12:52.494Z,12.95
2023-05-14T01:15:33.425Z,11.55
2023-05-14T01:18:13.603Z,11.43
2023-05-14T01:20:41.279Z,12.63
2023-05-14T01:23:08.963Z,15.15
2023-05-14T01:25:37.367Z,16.70
2023-05-14T01:28:19.386Z,12.35
2023-05-14T01:31:15.293Z,12.93
2023-05-14T01:33:44.840Z,13.07
2023-05-14T01:36:13.398Z,13.65
2023-05-14T01:38:45.658Z,15.02
2023-05-14T01:41:14.627Z,14.93
2023-05-14T01:43:42.488Z,14.23
2023-05-14T01:46:10.190Z,18.00
2023-05-14T01:48:37.915Z,15.27
2023-05-14T01:51:05.802Z,16.08
2023-05-14T01:53:34.890Z,16.13
2023-05-14T01:56:02.710Z,16.48
2023-05-14T01:58:30.336Z,15.43
2023-05-14T02:00:58.298Z,15.98
2023-05-14T02:03:25.956Z,16.15
2023-05-14T02:05:53.579Z,15.60
2023-05-14T02:08:21.216Z,16.60
2023-05-14T02:10:49.033Z,17.10
2023-05-14T02:13:16.896Z,17.35
2023-05-14T02:15:44.468Z,18.13
2023-05-14T02:18:12.604Z,16.20
2023-05-14T02:20:40.802Z,15.93
2023-05-14T02:23:08.409Z,16.50
2023-05-14T02:25:36.055Z,18.27
2023-05-14T02:28:03.618Z,17.85
2023-05-14T02:30:31.453Z,17.52
2023-05-14T02:32:59.081Z,18.23
2023-05-14T02:35:26.699Z,17.98
2023-05-14T02:37:54.439Z,20.13
2023-05-14T02:40:22.492Z,16.83
2023-05-14T02:42:50.267Z,17.88
2023-05-14T02:45:17.929Z,17.40
2023-05-14T02:47:46.125Z,18.65
2023-05-14T02:50:13.763Z,16.80
2023-05-14T02:52:41.462Z,17.80
2023-05-14T02:55:10.039Z,18.88
2023-05-14T02:57:37.640Z,17.27
2023-05-14T03:00:06.674Z,19.63
2023-05-14T03:02:35.848Z,18.20
2023-05-14T03:05:04.190Z,18.38
2023-05-14T03:07:31.785Z,20.65
2023-05-14T03:10:00.420Z,18.33
2023-05-14T03:12:28.098Z,16.02
2023-05-14T03:14:55.657Z,17.67
2023-05-14T03:17:23.329Z,17.00
2023-05-14T03:19:51.312Z,17.95
2023-05-14T03:22:19.180Z,19.38
2023-05-14T03:24:48.586Z,18.48
2023-05-14T03:27:16.276Z,18.88
2023-05-14T03:29:43.837Z,17.20
2023-05-14T03:32:11.505Z,18.27
2023-05-14T03:34:39.167Z,16.50
2023-05-14T03:37:06.793Z,21.08
2023-05-14T03:39:34.401Z,18.55
2023-05-14T03:42:02.271Z,16.15
2023-05-14T03:44:29.885Z,17.80
2023-05-14T03:46:57.467Z,18.27
2023-05-14T03:49:25.748Z,18.20
2023-05-14T03:51:53.467Z,17.42
2023-05-14T03:54:21.121Z,16.13
2023-05-14T03:56:48.692Z,17.67
2023-05-14T03:59:18.889Z,16.60
2023-05-14T04:01:46.525Z,17.42
2023-05-14T04:04:14.243Z,17.02
2023-05-14T04:06:41.873Z,16.95
2023-05-14T04:09:10.879Z,19.88
2023-05-14T04:11:38.770Z,18.15
2023-05-14T04:14:06.778Z,15.20
2023-05-14T04:16:34.423Z,18.45
2023-05-14T04:19:06.428Z,17.90
2023-05-14T04:21:34.092Z,17.38
2023-05-14T04:24:01.778Z,22.02
2023-05-14T04:26:29.339Z,16.67
2023-05-14T04:28:56.962Z,20.13
2023-05-14T04:31:24.747Z,18.23
2023-05-14T04:33:52.313Z,17.60
2023-05-14T04:36:19.846Z,20.33
2023-05-14T04:38:47.395Z,20.77
2023-05-14T04:41:15.027Z,21.90
2023-05-14T04:43:42.538Z,19.90
2023-05-14T04:46:10.091Z,22.42
2023-05-14T04:48:37.745Z,20.88
2023-05-14T04:51:07.097Z,18.13
2023-05-14T04:53:34.838Z,19.58
2023-05-14T04:56:02.714Z,19.08
2023-05-14T04:58:34.621Z,19.00
2023-05-14T05:01:05.778Z,17.13
2023-05-14T05:03:33.507Z,19.33
2023-05-14T05:06:01.277Z,19.75
2023-05-14T05:08:29.301Z,20.73
2023-05-14T05:10:56.937Z,18.33
2023-05-14T05:13:24.575Z,19.13
2023-05-14T05:15:52.271Z,18.65
2023-05-14T05:18:19.943Z,19.10
2023-05-14T05:20:47.800Z,22.33
2023-05-14T05:23:15.465Z,21.98
2023-05-14T05:25:43.172Z,18.02
2023-05-14T05:28:10.711Z,20.58
2023-05-14T05:30:38.347Z,19.17
2023-05-14T05:33:06.081Z,20.92
2023-05-14T05:35:33.738Z,18.58
2023-05-14T05:38:02.000Z,18.92
2023-05-14T05:40:32.127Z,21.90
2023-05-14T05:42:59.741Z,19.95
2023-05-14T05:45:27.343Z,19.35
2023-05-14T05:47:54.898Z,24.42
2023-05-14T05:50:22.848Z,19.52
2023-05-14T05:52:50.834Z,24.00
2023-05-14T05:55:20.612Z,22.58
2023-05-14T05:57:48.136Z,22.55
2023-05-14T06:00:17.011Z,20.42
2023-05-14T06:02:45.052Z,22.73
2023-05-14T06:05:13.159Z,23.75
2023-05-14T06:07:40.934Z,21.42
2023-05-14T06:10:08.811Z,21.05
2023-05-14T06:12:36.599Z,18.05
2023-05-14T06:15:04.709Z,21.30
2023-05-14T06:17:32.303Z,19.80
2023-05-14T06:19:59.953Z,20.00
2023-05-14T06:22:27.526Z,19.67
2023-05-14T06:24:55.154Z,20.85
2023-05-14T06:27:22.760Z,21.42
2023-05-14T06:29:50.288Z,20.02
2023-05-14T06:32:18.067Z,19.10
2023-05-14T06:34:45.717Z,21.75
2023-05-14T06:37:13.332Z,21.13
2023-05-14T06:39:46.527Z,21.95
2023-05-14T06:42:14.146Z,22.33
2023-05-14T06:44:43.772Z,20.13
2023-05-14T06:47:11.700Z,20.90
2023-05-14T06:49:41.098Z,19.45
2023-05-14T06:52:08.934Z,20.17
2023-05-14T06:54:36.840Z,20.63
2023-05-14T06:57:12.044Z,20.35
2023-05-14T06:59:39.725Z,18.73
2023-05-14T07:02:07.396Z,19.52
2023-05-14T07:04:35.134Z,18.55
2023-05-14T07:07:02.955Z,21.23
2023-05-14T07:09:30.550Z,22.13
2023-05-14T07:11:58.225Z,19.63
2023-05-14T07:14:25.851Z,20.80
2023-05-14T07:16:53.687Z,19.15
2023-05-14T07:19:22.359Z,19.40
2023-05-14T07:21:49.924Z,21.55
2023-05-14T07:24:17.497Z,18.00
2023-05-14T07:26:45.303Z,16.42
2023-05-14T07:29:12.876Z,16.77
2023-05-14T07:31:40.668Z,17.65
2023-05-14T07:34:08.810Z,16.52
2023-05-14T07:36:36.663Z,17.67
2023-05-14T07:39:04.356Z,19.30
2023-05-14T07:41:31.940Z,16.95
2023-05-14T07:43:59.490Z,17.33
2023-05-14T07:46:27.055Z,17.67
2023-05-14T07:48:54.731Z,17.58
2023-05-14T07:51:23.044Z,21.63
2023-05-14T07:53:50.766Z,21.02
2023-05-14T07:56:18.321Z,18.85
2023-05-14T07:58:46.156Z,17.88
2023-05-14T08:01:13.980Z,19.25
2023-05-14T08:03:41.694Z,17.15
2023-05-14T08:06:09.452Z,16.52
2023-05-14T08:08:37.008Z,17.42
2023-05-14T08:11:04.806Z,19.52
2023-05-14T08:13:32.530Z,18.27
2023-05-14T08:16:00.345Z,16.10
2023-05-14T08:18:27.872Z,20.00
2023-05-14T08:20:56.097Z,19.27
2023-05-14T08:23:23.770Z,17.15
2023-05-14T08:25:51.409Z,16.83
2023-05-14T08:28:19.066Z,15.77
2023-05-14T08:30:46.678Z,16.10
2023-05-14T08:33:14.453Z,17.90
2023-05-14T08:35:42.059Z,18.55
2023-05-14T08:38:09.667Z,18.05
2023-05-14T08:40:37.356Z,17.35
2023-05-14T08:43:09.996Z,19.05
2023-05-14T08:45:39.530Z,14.60
2023-05-14T08:48:11.678Z,15.20
2023-05-14T08:50:40.031Z,17.52
2023-05-14T08:53:07.738Z,15.32
2023-05-14T08:55:37.301Z,18.30
2023-05-14T08:58:04.907Z,15.63
2023-05-14T09:00:33.025Z,15.20
2023-05-14T09:03:01.543Z,17.33
2023-05-14T09:05:29.251Z,14.93
2023-05-14T09:07:56.979Z,16.60
2023-05-14T09:10:24.812Z,14.85
2023-05-14T09:12:52.734Z,17.38
2023-05-14T09:15:20.339Z,17.70
2023-05-14T09:17:48.695Z,17.48
2023-05-14T09:20:16.934Z,19.63
2023-05-14T09:22:44.583Z,15.30
2023-05-14T09:25:13.016Z,16.40
2023-05-14T09:27:40.732Z,15.18
2023-05-14T09:30:13.823Z,17.08
2023-05-14T09:32:44.463Z,19.23
2023-05-14T09:35:17.482Z,17.83
2023-05-14T09:37:49.862Z,17.83
2023-05-14T09:40:23.831Z,18.02
2023-05-14T09:42:51.943Z,14.48
2023-05-14T09:45:19.699Z,15.30
2023-05-14T09:47:47.556Z,18.40
2023-05-14T09:50:15.321Z,15.00
2023-05-14T09:52:42.917Z,16.00
2023-05-14T09:55:10.568Z,17.10
2023-05-14T09:57:38.458Z,17.77
2023-05-14T10:00:08.645Z,14.15
2023-05-14T10:02:38.533Z,16.70
2023-05-14T10:05:07.890Z,16.70
2023-05-14T10:07:42.971Z,16.20
2023-05-14T10:10:16.885Z,17.13
2023-05-14T10:12:52.837Z,14.75
2023-05-14T10:15:29.051Z,14.50
2023-05-14T10:18:06.807Z,14.80
2023-05-14T10:20:36.727Z,16.23
2023-05-14T10:23:07.447Z,15.57
2023-05-14T10:25:36.930Z,16.73
2023-05-14T10:28:06.481Z,15.05
2023-05-14T10:30:34.146Z,15.07
2023-05-14T10:33:18.838Z,14.60
2023-05-14T10:36:03.954Z,15.98
2023-05-14T10:38:38.722Z,13.88
2023-05-14T10:41:12.721Z,14.45
2023-05-14T10:43:42.162Z,15.27
2023-05-14T10:46:13.420Z,11.60
2023-05-14T10:51:12.247Z,13.30
2023-05-14T10:53:44.157Z,10.68
2023-05-14T10:56:14.596Z,11.73
2023-05-14T10:58:50.473Z,11.48
2023-05-14T11:01:18.090Z,11.73
2023-05-14T11:03:47.145Z,14.57
2023-05-14T11:06:16.521Z,11.85
2023-05-14T11:08:46.371Z,9.65
2023-05-14T11:11:14.436Z,11.30
2023-05-14T11:13:42.965Z,12.95
2023-05-14T11:16:22.426Z,11.70
2023-05-14T11:19:03.522Z,10.03
2023-05-14T11:21:32.783Z,9.50
2023-05-14T11:24:01.214Z,10.25
2023-05-14T11:26:28.897Z,8.93
2023-05-14T11:28:56.774Z,9.43
2023-05-14T11:31:25.687Z,11.30
2023-05-14T11:33:53.705Z,9.82
2023-05-14T11:36:22.111Z,9.15
2023-05-14T11:38:51.486Z,9.98
2023-05-14T11:41:21.331Z,9.40
2023-05-14T11:43:49.185Z,9.82
2023-05-14T11:46:18.741Z,11.93
2023-05-14T11:48:46.494Z,8.15
2023-05-14T11:51:15.365Z,7.25
2023-05-14T11:53:42.860Z,9.70
2023-05-14T11:56:11.173Z,8.63
2023-05-14T11:58:38.710Z,8.05
2023-05-14T12:01:06.399Z,8.15
2023-05-14T12:03:35.479Z,6.78
2023-05-14T12:06:08.039Z,8.68
2023-05-14T12:08:37.679Z,8.82
2023-05-14T12:11:05.384Z,6.88
2023-05-14T12:13:33.362Z,7.50
2023-05-14T12:16:02.643Z,6.72
2023-05-14T12:18:32.515Z,8.15
2023-05-14T12:21:05.948Z,5.90
2023-05-14T12:23:33.978Z,6.32
2023-05-14T12:26:07.266Z,6.50
2023-05-14T12:28:38.813Z,7.07
2023-05-14T12:31:06.680Z,8.95
2023-05-14T12:33:34.332Z,6.15
2023-05-14T12:36:13.982Z,7.32
2023-05-14T12:38:50.494Z,10.27
2023-05-14T12:41:18.323Z,7.13
2023-05-14T12:43:50.161Z,6.25
2023-05-14T12:46:18.159Z,7.40
2023-05-14T12:48:46.381Z,4.95
2023-05-14T12:51:14.478Z,5.18
2023-05-14T12:53:42.310Z,7.22
2023-05-14T12:56:10.420Z,6.50
2023-05-14T12:58:38.069Z,6.78
2023-05-14T13:01:06.682Z,10.07
2023-05-14T13:03:34.672Z,9.52
2023-05-14T13:06:02.240Z,9.50
2023-05-14T13:08:29.908Z,7.97
2023-05-14T13:10:57.522Z,10.05
2023-05-14T13:13:25.160Z,6.63
2023-05-14T13:15:53.650Z,9.02
2023-05-14T13:18:21.453Z,8.25
2023-05-14T13:20:49.112Z,9.35
2023-05-14T13:23:16.639Z,9.48
2023-05-14T13:25:44.257Z,6.75
2023-05-14T13:28:12.118Z,8.48
2023-05-14T13:30:41.050Z,6.65
2023-05-14T13:33:08.948Z,7.43
2023-05-14T13:35:36.748Z,5.85
2023-05-14T13:38:04.307Z,6.10
2023-05-14T13:40:31.841Z,5.53
2023-05-14T13:42:59.357Z,7.28
2023-05-14T13:45:27.001Z,6.28
2023-05-14T13:47:56.625Z,7.40
2023-05-14T13:50:24.525Z,8.68
2023-05-14T13:52:52.162Z,8.00
2023-05-14T13:55:19.714Z,7.45
2023-05-14T13:57:47.244Z,7.63
2023-05-14T14:00:15.773Z,8.63
2023-05-14T14:02:43.367Z,7.15
2023-05-14T14:05:10.982Z,7.03
2023-05-14T14:07:39.643Z,7.20
2023-05-14T14:10:08.748Z,6.85
2023-05-14T14:12:36.754Z,7.00
2023-05-14T14:15:06.248Z,7.53
2023-05-14T14:17:34.788Z,6.95
2023-05-14T14:20:03.459Z,5.97
2023-05-14T14:22:31.069Z,10.25
2023-05-14T14:24:58.829Z,5.35
2023-05-14T14:27:26.753Z,10.48
2023-05-14T14:29:54.469Z,9.75
2023-05-14T14:32:22.070Z,6.70
2023-05-14T14:34:49.696Z,6.43
2023-05-14T14:37:17.274Z,10.18
2023-05-14T14:39:44.832Z,7.30
2023-05-14T14:42:12.641Z,5.82
2023-05-14T14:44:40.154Z,6.45
2023-05-14T14:47:07.719Z,7.25
2023-05-14T14:49:37.926Z,6.68
2023-05-14T14:52:05.601Z,6.60
2023-05-14T14:54:33.178Z,6.03
2023-05-14T14:57:00.852Z,8.52
2023-05-14T14:59:28.488Z,7.60
2023-05-14T15:01:56.125Z,6.70
2023-05-14T15:04:23.764Z,6.47
2023-05-14T15:06:51.342Z,5.78
2023-05-14T15:09:19.028Z,7.03
2023-05-14T15:11:47.161Z,8.25
2023-05-14T15:14:14.669Z,5.50
2023-05-14T15:16:42.469Z,4.60
2023-05-14T15:19:10.206Z,5.78
2023-05-14T15:21:38.047Z,5.20
2023-05-14T15:24:06.230Z,4.93
2023-05-14T15:26:34.295Z,6.38
2023-05-14T15:29:01.951Z,6.22
2023-05-14T15:31:30.001Z,6.47
2023-05-14T15:33:57.695Z,6.57
2023-05-14T15:36:25.457Z,6.10
2023-05-14T15:38:53.015Z,5.60
2023-05-14T15:41:21.163Z,7.80
2023-05-14T15:43:48.740Z,8.10
2023-05-14T15:46:16.324Z,6.05
2023-05-14T15:48:43.949Z,6.00
2023-05-14T15:51:11.654Z,5.80
2023-05-14T15:53:39.245Z,6.63
2023-05-14T15:56:07.764Z,5.90
2023-05-14T15:58:35.457Z,11.02
2023-05-14T16:01:03.145Z,8.32
2023-05-14T16:03:30.897Z,6.85
2023-05-14T16:05:58.692Z,6.38
2023-05-14T16:08:26.241Z,5.35
2023-05-14T16:10:53.875Z,7.53
2023-05-14T16:13:21.417Z,10.43
2023-05-14T16:15:49.055Z,7.32
2023-05-14T16:18:16.696Z,6.28
2023-05-14T16:20:44.503Z,6.72
2023-05-14T16:23:12.095Z,7.10
2023-05-14T16:25:39.679Z,8.25
2023-05-14T16:28:07.988Z,7.75
2023-05-14T16:30:35.550Z,10.10
2023-05-14T16:33:03.234Z,5.80
2023-05-14T16:35:30.883Z,8.98
2023-05-14T16:37:58.396Z,7.25
2023-05-14T16:40:26.039Z,6.93
2023-05-14T16:42:56.397Z,5.47
2023-05-14T16:45:24.258Z,6.18
2023-05-14T16:47:52.074Z,5.97
2023-05-14T16:50:19.899Z,8.27
2023-05-14T16:52:47.464Z,7.18
2023-05-14T16:55:15.499Z,6.38
2023-05-14T16:57:43.747Z,7.43
2023-05-14T17:00:23.182Z,8.30
2023-05-14T17:02:56.803Z,7.88
2023-05-14T17:05:24.599Z,5.60
2023-05-14T17:07:52.314Z,7.32
2023-05-14T17:10:20.056Z,7.53
2023-05-14T17:12:47.597Z,7.85
2023-05-14T17:15:15.315Z,13.48
2023-05-14T17:17:43.102Z,7.28
2023-05-14T17:20:11.853Z,8.30
2023-05-14T17:22:39.481Z,9.40
2023-05-14T17:25:08.760Z,7.32
2023-05-14T17:27:36.398Z,9.60
2023-05-14T17:30:04.601Z,8.32
2023-05-14T17:32:32.326Z,9.25
2023-05-14T17:34:59.977Z,7.70
2023-05-14T17:37:27.629Z,8.30
2023-05-14T17:39:55.251Z,8.27
2023-05-14T17:42:22.774Z,8.43
2023-05-14T17:44:50.375Z,12.70
2023-05-14T17:47:20.546Z,8.15
2023-05-14T17:49:48.276Z,10.45
2023-05-14T17:52:15.815Z,10.45
2023-05-14T17:54:43.399Z,11.60
2023-05-14T17:57:11.187Z,8.45
2023-05-14T17:59:38.786Z,10.13
2023-05-14T18:02:09.922Z,10.07
2023-05-14T18:04:37.628Z,12.18
2023-05-14T18:07:09.178Z,11.32
2023-05-14T18:09:37.462Z,9.25
2023-05-14T18:12:05.539Z,7.57
2023-05-14T18:14:33.199Z,9.55
2023-05-14T18:22:11.437Z,13.10
2023-05-14T18:24:39.008Z,7.82
2023-05-14T18:27:06.695Z,11.70
2023-05-14T18:29:34.223Z,9.20
2023-05-14T18:32:01.974Z,9.98
2023-05-14T18:34:29.611Z,9.48
2023-05-14T18:36:57.898Z,9.73
2023-05-14T18:39:29.325Z,9.98
2023-05-14T18:42:00.895Z,13.38
2023-05-14T18:44:28.490Z,8.80
2023-05-14T18:46:56.177Z,8.82
2023-05-14T18:49:23.718Z,12.90
2023-05-14T18:51:53.586Z,11.93
2023-05-14T18:54:21.264Z,9.38
2023-05-14T18:56:48.845Z,11.25
2023-05-14T18:59:16.417Z,10.93
2023-05-14T19:01:44.021Z,10.50
2023-05-14T19:04:13.733Z,10.93
2023-05-14T19:06:41.515Z,12.38
2023-05-14T19:09:10.711Z,10.93
2023-05-14T19:11:38.469Z,12.50
2023-05-14T19:14:06.282Z,10.73
2023-05-14T19:16:33.963Z,12.93
2023-05-14T19:19:01.660Z,12.18
2023-05-14T19:21:29.308Z,15.52
2023-05-14T19:23:56.891Z,15.45
2023-05-14T19:26:24.617Z,13.25
2023-05-14T19:28:57.889Z,14.02
2023-05-14T19:31:27.055Z,11.35
2023-05-14T19:33:55.346Z,15.90
2023-05-14T19:36:22.894Z,11.13
2023-05-14T19:38:50.627Z,17.42
2023-05-14T19:41:18.303Z,13.40
2023-05-14T19:43:45.944Z,18.63
2023-05-14T19:46:13.651Z,15.68
2023-05-14T19:48:43.717Z,16.30
2023-05-14T19:51:11.572Z,16.48
2023-05-14T19:53:39.181Z,16.92
2023-05-14T19:56:06.976Z,17.42
2023-05-14T19:58:34.662Z,19.08
2023-05-14T20:01:02.265Z,21.55
2023-05-14T20:03:30.278Z,17.27
2023-05-14T20:05:58.024Z,16.48
2023-05-14T20:08:25.654Z,20.45
2023-05-14T20:10:53.268Z,16.15
2023-05-14T20:13:23.070Z,17.30
2023-05-14T20:15:51.604Z,20.20
2023-05-14T20:18:19.274Z,22.63
2023-05-14T20:20:47.020Z,18.13
2023-05-14T20:23:14.529Z,16.35
2023-05-14T20:25:43.063Z,19.02
2023-05-14T20:28:10.935Z,16.77
2023-05-14T20:30:38.584Z,17.65
2023-05-14T20:33:06.722Z,18.17
2023-05-14T20:35:34.448Z,16.20
2023-05-14T20:38:03.709Z,18.85
2023-05-14T20:40:32.784Z,17.17
2023-05-14T20:43:01.883Z,16.17
2023-05-14T20:45:29.657Z,16.55
2023-05-14T20:47:57.297Z,14.10
2023-05-14T20:50:27.121Z,15.23
2023-05-14T20:52:55.650Z,16.08
2023-05-14T20:55:23.609Z,14.00
2023-05-14T20:57:51.435Z,16.75
2023-05-14T21:00:19.645Z,15.32
2023-05-14T21:02:48.995Z,15.73
2023-05-14T21:05:17.469Z,13.77
2023-05-14T21:07:45.101Z,13.52
2023-05-14T21:10:12.688Z,14.00
2023-05-14T21:12:41.237Z,14.05
2023-05-14T21:15:10.640Z,14.73
2023-05-14T21:17:38.190Z,14.75
2023-05-14T21:20:06.883Z,15.27
2023-05-14T21:22:34.474Z,14.57
2023-05-14T21:25:02.030Z,13.15
2023-05-14T21:27:29.848Z,13.10
2023-05-14T21:29:57.402Z,14.23
2023-05-14T21:32:25.543Z,14.35
2023-05-14T21:34:53.255Z,13.52
2023-05-14T21:37:22.390Z,15.15
2023-05-14T21:39:49.992Z,14.57
2023-05-14T21:42:18.901Z,14.25
2023-05-14T21:44:46.990Z,13.32
2023-05-14T21:47:16.186Z,14.60
2023-05-14T21:49:43.804Z,17.92
2023-05-14T21:52:11.700Z,13.25
2023-05-14T21:54:39.249Z,16.17
2023-05-14T21:57:07.083Z,16.95
2023-05-14T21:59:36.527Z,15.60
2023-05-14T22:02:07.205Z,14.68
2023-05-14T22:04:35.633Z,17.30
2023-05-14T22:07:03.738Z,14.80
2023-05-14T22:09:31.489Z,16.65
2023-05-14T22:11:59.523Z,15.35
2023-05-14T22:14:27.336Z,16.75
2023-05-14T22:16:55.089Z,14.88
2023-05-14T22:19:22.801Z,19.48
2023-05-14T22:21:50.403Z,20.55
2023-05-14T22:24:18.119Z,17.55
2023-05-14T22:26:45.775Z,14.85
2023-05-14T22:29:13.301Z,16.98
2023-05-14T22:31:40.938Z,14.80
2023-05-14T22:34:08.534Z,18.17
2023-05-14T22:36:36.413Z,17.38
2023-05-14T22:39:04.041Z,19.52
2023-05-14T22:41:31.793Z,17.95
2023-05-14T22:43:59.409Z,17.42
2023-05-14T22:46:27.075Z,18.88
2023-05-14T22:48:55.427Z,16.73
2023-05-14T22:51:23.006Z,24.83
2023-05-14T22:53:50.642Z,20.15
2023-05-14T22:56:19.602Z,17.70
2023-05-14T22:58:47.736Z,20.90
2023-05-14T23:01:15.340Z,18.52
2023-05-14T23:03:42.938Z,16.63
2023-05-14T23:06:13.639Z,17.13
2023-05-14T23:08:41.208Z,17.80
2023-05-14T23:11:08.921Z,16.52
2023-05-14T23:13:36.417Z,20.42
2023-05-14T23:16:04.932Z,15.90
2023-05-14T23:18:32.851Z,18.58
2023-05-14T23:21:00.559Z,18.15
2023-05-14T23:23:28.175Z,16.23
2023-05-14T23:25:56.166Z,20.05
2023-05-14T23:28:23.699Z,18.05
2023-05-14T23:30:51.195Z,19.20
2023-05-14T23:33:19.008Z,18.27
2023-05-14T23:35:46.739Z,18.65
2023-05-14T23:38:14.533Z,20.17
2023-05-14T23:40:42.337Z,19.50
2023-05-14T23:43:09.922Z,18.83
2023-05-14T23:45:37.654Z,18.60
2023-05-14T23:48:05.881Z,20.40
2023-05-14T23:50:33.459Z,21.08
2023-05-14T23:53:01.082Z,19.25
2023-05-14T23:55:28.681Z,19.35
2023-05-14T23:57:56.800Z,20.13
